Time;durP1;ratioP1;P1;durP2;ratioP2;P2;SDS_P1;SDS_P2;PMS_P1;PMS_P2;Temp;Humidity;BMP_temperature;BMP_pressure;BME280_temperature;BME280_humidity;BME280_pressure;Samples;Min_cycle;Max_cycle;Signal;HPM_P1;HPM_P2
2023/07/01 00:01:17;;;;;;;;;;;17.30;99.90;;;;;;7592107;19;19922;-82
2023/07/01 00:03:49;;;;;;;;;;;17.30;99.90;;;;;;7597880;19;19919;-81
2023/07/01 00:06:21;;;;;;;;;;;17.20;99.90;;;;;;7587714;19;19952;-80
2023/07/01 00:08:54;;;;;;;;;;;17.40;99.90;;;;;;7589363;19;19957;-82
2023/07/01 00:11:28;;;;;;;;;;;17.30;99.90;;;;;;7591924;19;20265;-83
2023/07/01 00:14:01;;;;;;;;;;;17.30;99.90;;;;;;7586683;19;19935;-80
2023/07/01 00:16:33;;;;;;;;;;;17.30;99.90;;;;;;7592428;19;19914;-81
2023/07/01 00:19:07;;;;;;;;;;;17.30;99.90;;;;;;7583914;19;19925;-83
2023/07/01 00:21:39;;;;;;;;;;;17.20;99.90;;;;;;7600215;19;19926;-80
2023/07/01 00:24:11;;;;;;;;;;;17.10;99.90;;;;;;7595909;19;19926;-81
2023/07/01 00:26:44;;;;;;;;;;;17.00;99.90;;;;;;7592192;19;20318;-80
2023/07/01 00:29:16;;;;;;;;;;;17.10;99.90;;;;;;7597036;19;20341;-79
2023/07/01 00:31:48;;;;;;;;;;;17.00;99.90;;;;;;7588121;19;21101;-80
2023/07/01 00:34:20;;;;;;;;;;;16.90;99.90;;;;;;7604537;19;20558;-82
2023/07/01 00:36:52;;;;;;;;;;;17.10;99.90;;;;;;7595869;19;19947;-80
2023/07/01 00:39:25;;;;;;;;;;;17.10;99.90;;;;;;7569241;19;20006;-81
2023/07/01 00:41:57;;;;;;;;;;;17.00;99.90;;;;;;7588831;19;19975;-83
2023/07/01 00:44:29;;;;;;;;;;;17.10;99.90;;;;;;7594142;19;19915;-80
2023/07/01 00:47:01;;;;;;;;;;;17.00;99.90;;;;;;7597974;19;19926;-81
2023/07/01 00:49:34;;;;;;;;;;;17.00;99.90;;;;;;7596382;19;19934;-81
2023/07/01 00:52:07;;;;;;;;;;;17.00;99.90;;;;;;7591817;19;19918;-79
2023/07/01 00:54:39;;;;;;;;;;;16.90;99.90;;;;;;7603132;19;19927;-81
2023/07/01 00:57:11;;;;;;;;;;;16.80;99.90;;;;;;7580113;19;19935;-80
2023/07/01 00:59:43;;;;;;;;;;;16.90;99.90;;;;;;7595651;19;19914;-80
2023/07/01 01:02:19;;;;;;;;;;;16.90;99.90;;;;;;7586794;19;19919;-81
2023/07/01 01:05:01;;;;;;;;;;;17.10;99.90;;;;;;7584176;19;19911;-79
2023/07/01 01:07:47;;;;;;;;;;;17.00;99.90;;;;;;7584218;19;20318;-80
2023/07/01 01:10:24;;;;;;;;;;;17.00;99.90;;;;;;7585171;19;19919;-82
2023/07/01 01:12:57;;;;;;;;;;;17.00;99.90;;;;;;7555882;19;19919;-80
2023/07/01 01:15:29;;;;;;;;;;;17.10;99.90;;;;;;7568511;19;19919;-80
2023/07/01 01:18:04;;;;;;;;;;;17.20;99.90;;;;;;7557720;19;20249;-82
2023/07/01 01:20:38;;;;;;;;;;;17.10;99.90;;;;;;7552121;19;19941;-78
2023/07/01 01:23:14;;;;;;;;;;;17.20;99.90;;;;;;7569462;19;19919;-80
2023/07/01 01:25:48;;;;;;;;;;;17.30;99.90;;;;;;7560271;19;20737;-81
2023/07/01 01:28:21;;;;;;;;;;;17.30;99.90;;;;;;7576636;19;20579;-81
2023/07/01 01:30:54;;;;;;;;;;;17.40;99.90;;;;;;7553444;19;19915;-78
2023/07/01 01:33:26;;;;;;;;;;;17.30;99.90;;;;;;7563671;19;19919;-79
2023/07/01 01:36:04;;;;;;;;;;;17.40;99.90;;;;;;7586412;19;19933;-79
2023/07/01 01:38:37;;;;;;;;;;;17.40;99.90;;;;;;7602945;19;20356;-79
2023/07/01 01:41:13;;;;;;;;;;;17.40;99.90;;;;;;7600518;19;20778;-82
2023/07/01 01:43:48;;;;;;;;;;;17.30;99.90;;;;;;7587337;19;19923;-79
2023/07/01 01:46:23;;;;;;;;;;;17.30;99.90;;;;;;7583545;19;19930;-81
2023/07/01 01:48:59;;;;;;;;;;;17.40;99.90;;;;;;7585284;19;19932;-81
2023/07/01 01:51:32;;;;;;;;;;;17.40;99.90;;;;;;7584395;19;20363;-82
2023/07/01 01:54:05;;;;;;;;;;;17.50;99.90;;;;;;7597491;19;19928;-81
2023/07/01 01:56:37;;;;;;;;;;;17.50;99.90;;;;;;7598366;19;21026;-82
2023/07/01 01:59:11;;;;;;;;;;;17.50;99.90;;;;;;7586671;19;19953;-81
2023/07/01 02:01:43;;;;;;;;;;;17.50;99.90;;;;;;7588898;19;20562;-81
2023/07/01 02:04:15;;;;;;;;;;;17.50;99.90;;;;;;7582843;19;19914;-81
2023/07/01 02:06:48;;;;;;;;;;;17.50;99.90;;;;;;7584163;19;19919;-81
2023/07/01 02:09:20;;;;;;;;;;;17.50;99.90;;;;;;7572586;19;19923;-80
2023/07/01 02:11:52;;;;;;;;;;;17.40;99.90;;;;;;7574139;19;21392;-81
2023/07/01 02:14:25;;;;;;;;;;;17.40;99.90;;;;;;7598009;19;19919;-81
2023/07/01 02:16:57;;;;;;;;;;;17.50;99.90;;;;;;7606149;19;19927;-81
2023/07/01 02:19:29;;;;;;;;;;;17.50;99.90;;;;;;7590952;19;19930;-80
2023/07/01 02:22:02;;;;;;;;;;;17.50;99.90;;;;;;7594299;19;19957;-80
2023/07/01 02:24:34;;;;;;;;;;;17.40;99.90;;;;;;7575929;19;19922;-81
2023/07/01 02:27:06;;;;;;;;;;;17.40;99.90;;;;;;7581258;19;19918;-80
2023/07/01 02:29:39;;;;;;;;;;;17.40;99.90;;;;;;7590981;19;19942;-81
2023/07/01 02:32:11;;;;;;;;;;;17.40;99.90;;;;;;7590142;19;21419;-81
2023/07/01 02:34:43;;;;;;;;;;;17.40;99.90;;;;;;7589862;19;19923;-80
2023/07/01 02:37:15;;;;;;;;;;;17.40;99.90;;;;;;7589818;19;19919;-80
2023/07/01 02:39:48;;;;;;;;;;;17.40;99.90;;;;;;7585850;19;19931;-80
2023/07/01 02:42:20;;;;;;;;;;;17.40;99.90;;;;;;7586694;19;19926;-80
2023/07/01 02:44:53;;;;;;;;;;;17.40;99.90;;;;;;7597659;19;20456;-80
2023/07/01 02:47:25;;;;;;;;;;;17.40;99.90;;;;;;7591793;19;19955;-81
2023/07/01 02:49:57;;;;;;;;;;;17.40;99.90;;;;;;7586631;19;19929;-81
2023/07/01 02:52:30;;;;;;;;;;;17.40;99.90;;;;;;7594447;19;19922;-80
2023/07/01 02:55:02;;;;;;;;;;;17.30;99.90;;;;;;7597429;19;19975;-79
2023/07/01 02:57:34;;;;;;;;;;;17.30;99.90;;;;;;7584963;19;19949;-80
2023/07/01 03:00:14;;;;;;;;;;;17.20;99.90;;;;;;7578242;19;19937;-79
2023/07/01 03:02:46;;;;;;;;;;;17.20;99.90;;;;;;7571493;19;20530;-82
2023/07/01 03:05:23;;;;;;;;;;;17.00;99.90;;;;;;7589313;19;19918;-79
2023/07/01 03:07:55;;;;;;;;;;;17.10;99.90;;;;;;7587232;19;21616;-83
2023/07/01 03:10:27;;;;;;;;;;;17.10;99.90;;;;;;7573373;19;19953;-82
2023/07/01 03:13:00;;;;;;;;;;;17.10;99.90;;;;;;7542909;19;19922;-81
2023/07/01 03:15:32;;;;;;;;;;;17.00;99.90;;;;;;7546416;19;20663;-80
2023/07/01 03:18:04;;;;;;;;;;;17.00;99.90;;;;;;7587694;19;19922;-81
2023/07/01 03:20:36;;;;;;;;;;;16.90;99.90;;;;;;7574976;19;19919;-80
2023/07/01 03:23:09;;;;;;;;;;;16.90;99.90;;;;;;7586669;19;20352;-81
2023/07/01 03:25:41;;;;;;;;;;;16.90;99.90;;;;;;7586089;19;19919;-81
2023/07/01 03:28:14;;;;;;;;;;;16.90;99.90;;;;;;7534746;19;19969;-81
2023/07/01 03:30:46;;;;;;;;;;;16.80;99.90;;;;;;7575837;19;19961;-81
2023/07/01 03:33:18;;;;;;;;;;;16.70;99.90;;;;;;7598975;19;19978;-80
2023/07/01 03:35:51;;;;;;;;;;;16.50;99.90;;;;;;7595239;19;19919;-82
2023/07/01 03:38:23;;;;;;;;;;;16.40;99.90;;;;;;7606565;19;19922;-81
2023/07/01 03:40:55;;;;;;;;;;;16.40;99.90;;;;;;7600087;19;19914;-82
2023/07/01 03:43:28;;;;;;;;;;;16.30;99.90;;;;;;7605308;19;19915;-82
2023/07/01 03:46:00;;;;;;;;;;;16.30;99.90;;;;;;7610622;19;19923;-80
2023/07/01 03:48:34;;;;;;;;;;;16.30;99.90;;;;;;7591299;19;19922;-81
2023/07/01 03:51:06;;;;;;;;;;;16.20;99.90;;;;;;7603252;19;19914;-82
2023/07/01 03:53:38;;;;;;;;;;;16.10;99.90;;;;;;7602615;19;20599;-82
2023/07/01 03:56:11;;;;;;;;;;;16.00;99.90;;;;;;7589426;19;19923;-81
2023/07/01 03:58:43;;;;;;;;;;;16.00;99.90;;;;;;7582225;19;19922;-81
2023/07/01 04:01:16;;;;;;;;;;;16.00;99.90;;;;;;7589236;19;20010;-82
2023/07/01 04:03:48;;;;;;;;;;;16.00;99.90;;;;;;7586727;19;19922;-80
2023/07/01 04:06:21;;;;;;;;;;;15.90;99.90;;;;;;7598248;19;19919;-83
2023/07/01 04:08:54;;;;;;;;;;;15.90;99.90;;;;;;7593724;19;20903;-81
2023/07/01 04:11:28;;;;;;;;;;;15.90;99.90;;;;;;7603902;19;19930;-81
2023/07/01 04:14:00;;;;;;;;;;;15.90;99.90;;;;;;7602977;19;19944;-81
2023/07/01 04:16:32;;;;;;;;;;;15.90;99.90;;;;;;7597595;19;20285;-83
2023/07/01 04:19:08;;;;;;;;;;;15.90;99.90;;;;;;7598437;19;20523;-82
2023/07/01 04:21:40;;;;;;;;;;;15.80;99.90;;;;;;7593125;19;19922;-83
2023/07/01 04:24:12;;;;;;;;;;;15.70;99.90;;;;;;7606154;19;19929;-83
2023/07/01 04:26:44;;;;;;;;;;;15.60;99.90;;;;;;7602934;19;20346;-82
2023/07/01 04:29:16;;;;;;;;;;;15.60;99.90;;;;;;7597514;19;19926;-80
2023/07/01 04:31:48;;;;;;;;;;;15.70;99.90;;;;;;7596826;19;19933;-80
2023/07/01 04:34:20;;;;;;;;;;;15.60;99.90;;;;;;7604704;19;19926;-81
2023/07/01 04:36:52;;;;;;;;;;;15.70;99.90;;;;;;7608639;19;19926;-79
2023/07/01 04:39:24;;;;;;;;;;;15.70;99.90;;;;;;7605009;19;20353;-82
2023/07/01 04:41:57;;;;;;;;;;;15.80;99.90;;;;;;7570432;19;19915;-81
2023/07/01 04:44:29;;;;;;;;;;;15.60;99.90;;;;;;7595484;19;19942;-81
2023/07/01 04:47:01;;;;;;;;;;;15.70;99.90;;;;;;7588825;19;20040;-80
2023/07/01 04:49:34;;;;;;;;;;;15.80;99.90;;;;;;7590034;19;20516;-81
2023/07/01 04:52:07;;;;;;;;;;;15.80;99.90;;;;;;7585713;19;19930;-80
2023/07/01 04:54:39;;;;;;;;;;;15.80;99.90;;;;;;7583527;19;20320;-82
2023/07/01 04:57:11;;;;;;;;;;;15.90;99.90;;;;;;7594276;19;22249;-81
2023/07/01 04:59:43;;;;;;;;;;;15.80;99.90;;;;;;7583758;19;19998;-79
2023/07/01 05:02:15;;;;;;;;;;;15.80;99.90;;;;;;7555791;19;19919;-82
2023/07/01 05:04:47;;;;;;;;;;;15.90;99.90;;;;;;7580276;19;19914;-80
2023/07/01 05:07:20;;;;;;;;;;;16.00;99.90;;;;;;7586331;19;20329;-80
2023/07/01 05:09:52;;;;;;;;;;;15.90;99.90;;;;;;7584514;19;19927;-79
2023/07/01 05:12:26;;;;;;;;;;;15.90;99.90;;;;;;7576621;19;19957;-81
2023/07/01 05:14:59;;;;;;;;;;;15.90;99.90;;;;;;7580290;19;19923;-81
2023/07/01 05:17:31;;;;;;;;;;;16.00;99.90;;;;;;7580202;19;22126;-79
2023/07/01 05:20:05;;;;;;;;;;;16.00;99.90;;;;;;7593484;19;19934;-81
2023/07/01 05:22:37;;;;;;;;;;;15.90;99.90;;;;;;7584876;19;20315;-81
2023/07/01 05:25:10;;;;;;;;;;;15.90;99.90;;;;;;7571260;19;19918;-81
2023/07/01 05:27:42;;;;;;;;;;;15.90;99.90;;;;;;7582928;19;19910;-82
2023/07/01 05:30:14;;;;;;;;;;;15.90;99.90;;;;;;7587943;19;20044;-80
2023/07/01 05:32:46;;;;;;;;;;;15.90;99.90;;;;;;7575081;19;20318;-82
2023/07/01 05:35:19;;;;;;;;;;;15.90;99.90;;;;;;7584278;19;19937;-81
2023/07/01 05:37:52;;;;;;;;;;;16.00;99.90;;;;;;7586395;19;19925;-83
2023/07/01 05:40:24;;;;;;;;;;;16.00;99.90;;;;;;7584196;19;19930;-82
2023/07/01 05:42:57;;;;;;;;;;;15.90;99.90;;;;;;7572680;19;19944;-81
2023/07/01 05:45:30;;;;;;;;;;;15.90;99.90;;;;;;7588771;19;20006;-81
2023/07/01 05:48:02;;;;;;;;;;;15.90;99.90;;;;;;7588537;19;19919;-80
2023/07/01 05:50:34;;;;;;;;;;;15.90;99.90;;;;;;7565459;19;20671;-80
2023/07/01 05:53:07;;;;;;;;;;;16.00;99.90;;;;;;7578318;19;19926;-81
2023/07/01 05:55:39;;;;;;;;;;;16.00;99.90;;;;;;7583352;19;20352;-79
2023/07/01 05:58:11;;;;;;;;;;;16.00;99.90;;;;;;7569684;19;19922;-81
2023/07/01 06:00:44;;;;;;;;;;;16.00;99.90;;;;;;7566668;19;19934;-80
2023/07/01 06:03:17;;;;;;;;;;;16.10;99.90;;;;;;7582137;19;19911;-81
2023/07/01 06:05:49;;;;;;;;;;;16.20;99.90;;;;;;7567154;19;19918;-82
2023/07/01 06:08:21;;;;;;;;;;;16.20;99.90;;;;;;7591616;19;19914;-81
2023/07/01 06:10:53;;;;;;;;;;;16.20;99.90;;;;;;7595969;19;19926;-82
2023/07/01 06:13:25;;;;;;;;;;;16.20;99.90;;;;;;7571449;19;20022;-82
2023/07/01 06:15:58;;;;;;;;;;;16.30;99.90;;;;;;7569952;19;20575;-80
2023/07/01 06:18:30;;;;;;;;;;;16.30;99.90;;;;;;7588218;19;19923;-83
2023/07/01 06:21:06;;;;;;;;;;;16.40;99.90;;;;;;7586882;19;19966;-84
2023/07/01 06:23:38;;;;;;;;;;;16.40;99.90;;;;;;7587452;19;19919;-81
2023/07/01 06:26:12;;;;;;;;;;;16.30;99.90;;;;;;7580064;19;19932;-83
2023/07/01 06:28:48;;;;;;;;;;;16.30;99.90;;;;;;7575944;19;19932;-81
2023/07/01 06:31:20;;;;;;;;;;;16.40;99.90;;;;;;7571942;19;19930;-81
2023/07/01 06:33:52;;;;;;;;;;;16.50;99.90;;;;;;7576397;19;20131;-81
2023/07/01 06:36:25;;;;;;;;;;;16.50;99.90;;;;;;7577560;19;20676;-82
2023/07/01 06:38:57;;;;;;;;;;;16.50;99.90;;;;;;7574579;19;20246;-80
2023/07/01 06:41:29;;;;;;;;;;;16.70;99.90;;;;;;7587204;19;19918;-82
2023/07/01 06:44:02;;;;;;;;;;;16.70;99.90;;;;;;7587497;19;19922;-80
2023/07/01 06:46:34;;;;;;;;;;;16.70;99.90;;;;;;7595622;19;19937;-80
2023/07/01 06:49:06;;;;;;;;;;;16.60;99.90;;;;;;7576871;19;19926;-82
2023/07/01 06:51:40;;;;;;;;;;;16.60;99.90;;;;;;7587304;19;19930;-80
2023/07/01 06:54:12;;;;;;;;;;;16.60;99.90;;;;;;7569513;19;19961;-81
2023/07/01 06:56:44;;;;;;;;;;;16.40;99.90;;;;;;7599022;19;19949;-81
2023/07/01 06:59:16;;;;;;;;;;;16.50;99.90;;;;;;7586367;19;19930;-81
2023/07/01 07:01:49;;;;;;;;;;;16.40;99.90;;;;;;7547532;19;20012;-81
2023/07/01 07:04:21;;;;;;;;;;;16.50;99.90;;;;;;7588058;19;19922;-81
2023/07/01 07:06:53;;;;;;;;;;;16.50;99.90;;;;;;7601693;19;19986;-80
2023/07/01 07:09:25;;;;;;;;;;;16.50;99.90;;;;;;7588092;19;19951;-81
2023/07/01 07:12:00;;;;;;;;;;;16.60;99.90;;;;;;7591989;19;19926;-81
2023/07/01 07:14:33;;;;;;;;;;;16.60;99.90;;;;;;7593262;19;19922;-79
2023/07/01 07:17:05;;;;;;;;;;;16.50;99.90;;;;;;7629921;19;19921;-81
2023/07/01 07:19:37;;;;;;;;;;;16.60;99.90;;;;;;7601334;19;19943;-81
2023/07/01 07:22:09;;;;;;;;;;;16.60;99.90;;;;;;7593171;19;19926;-82
2023/07/01 07:24:42;;;;;;;;;;;16.80;99.90;;;;;;7577480;19;19915;-81
2023/07/01 07:27:14;;;;;;;;;;;16.70;99.90;;;;;;7561027;19;20483;-81
2023/07/01 07:29:47;;;;;;;;;;;16.80;99.90;;;;;;7543646;19;19922;-80
2023/07/01 07:32:19;;;;;;;;;;;16.70;99.90;;;;;;7535280;19;20544;-81
2023/07/01 07:34:51;;;;;;;;;;;16.80;99.90;;;;;;7566330;19;19914;-81
2023/07/01 07:37:23;;;;;;;;;;;16.90;99.90;;;;;;7578634;19;19923;-81
2023/07/01 07:39:59;;;;;;;;;;;17.00;99.90;;;;;;7555057;19;20308;-82
2023/07/01 07:42:31;;;;;;;;;;;17.10;99.90;;;;;;7569842;19;20950;-81
2023/07/01 07:45:04;;;;;;;;;;;17.30;99.90;;;;;;7598046;19;19957;-80
2023/07/01 07:47:37;;;;;;;;;;;17.20;99.90;;;;;;7587009;19;19932;-81
2023/07/01 07:50:09;;;;;;;;;;;17.20;99.90;;;;;;7582965;19;20334;-82
2023/07/01 07:52:41;;;;;;;;;;;17.20;99.90;;;;;;7591294;19;19926;-81
2023/07/01 07:55:17;;;;;;;;;;;17.30;99.90;;;;;;7607672;19;20140;-81
2023/07/01 07:57:49;;;;;;;;;;;17.30;99.90;;;;;;7610744;19;19915;-83
2023/07/01 08:00:21;;;;;;;;;;;17.30;99.90;;;;;;7577663;19;19918;-83
2023/07/01 08:02:54;;;;;;;;;;;17.60;99.90;;;;;;7608486;19;19910;-81
2023/07/01 08:05:27;;;;;;;;;;;17.60;99.90;;;;;;7597995;19;19943;-80
2023/07/01 08:08:00;;;;;;;;;;;17.90;99.90;;;;;;7564923;19;19971;-83
2023/07/01 08:10:32;;;;;;;;;;;17.90;99.90;;;;;;7587910;19;19923;-82
2023/07/01 08:13:04;;;;;;;;;;;18.10;99.90;;;;;;7568311;19;19930;-82
2023/07/01 08:15:37;;;;;;;;;;;18.30;99.90;;;;;;7547095;19;20964;-82
2023/07/01 08:18:09;;;;;;;;;;;18.30;99.90;;;;;;7544556;19;19953;-82
2023/07/01 08:20:41;;;;;;;;;;;18.40;99.90;;;;;;7576561;19;19925;-81
2023/07/01 08:23:13;;;;;;;;;;;18.50;99.90;;;;;;7595888;19;19935;-82
2023/07/01 08:25:46;;;;;;;;;;;18.60;99.90;;;;;;7590954;19;20304;-81
2023/07/01 08:28:18;;;;;;;;;;;18.60;99.90;;;;;;7571375;19;19914;-82
2023/07/01 08:30:50;;;;;;;;;;;18.80;99.90;;;;;;7589083;19;19934;-82
2023/07/01 08:33:25;;;;;;;;;;;18.90;99.90;;;;;;7599987;19;19923;-81
2023/07/01 08:35:57;;;;;;;;;;;18.90;99.90;;;;;;7593648;19;20777;-82
2023/07/01 08:38:29;;;;;;;;;;;18.90;99.90;;;;;;7580772;19;19919;-81
2023/07/01 08:41:05;;;;;;;;;;;18.90;99.90;;;;;;7584169;19;19924;-82
2023/07/01 08:43:38;;;;;;;;;;;19.00;99.90;;;;;;7591924;19;20244;-82
2023/07/01 08:46:12;;;;;;;;;;;19.00;99.90;;;;;;7583451;19;19952;-81
2023/07/01 08:48:45;;;;;;;;;;;19.10;99.90;;;;;;7560037;19;19926;-82
2023/07/01 08:51:25;;;;;;;;;;;19.20;99.90;;;;;;7573015;19;19926;-77
2023/07/01 08:54:02;;;;;;;;;;;19.10;99.90;;;;;;7573004;19;19926;-77
2023/07/01 08:56:34;;;;;;;;;;;19.30;99.90;;;;;;7565443;19;19923;-77
2023/07/01 08:59:07;;;;;;;;;;;19.30;99.90;;;;;;7593535;19;20463;-77
2023/07/01 09:01:39;;;;;;;;;;;19.40;99.90;;;;;;7591879;19;19919;-78
2023/07/01 09:04:12;;;;;;;;;;;19.50;99.90;;;;;;7575328;19;19977;-77
2023/07/01 09:06:44;;;;;;;;;;;19.50;99.90;;;;;;7566929;19;19926;-76
2023/07/01 09:09:16;;;;;;;;;;;19.60;99.90;;;;;;7570551;19;19941;-77
2023/07/01 09:11:48;;;;;;;;;;;19.70;99.90;;;;;;7582068;19;19960;-78
2023/07/01 09:14:20;;;;;;;;;;;19.70;99.90;;;;;;7575505;19;19946;-77
2023/07/01 09:16:53;;;;;;;;;;;19.90;99.90;;;;;;7572581;19;19941;-77
2023/07/01 09:19:25;;;;;;;;;;;19.90;99.90;;;;;;7583628;19;19914;-79
2023/07/01 09:22:07;;;;;;;;;;;19.80;99.90;;;;;;7577410;19;19922;-76
2023/07/01 09:24:39;;;;;;;;;;;19.70;99.90;;;;;;7577164;19;20321;-78
2023/07/01 09:27:11;;;;;;;;;;;19.60;99.90;;;;;;7583154;19;19919;-77
2023/07/01 09:29:44;;;;;;;;;;;19.90;99.90;;;;;;7585184;19;19911;-77
2023/07/01 09:32:28;;;;;;;;;;;20.00;99.90;;;;;;7589109;19;19926;-78
2023/07/01 09:35:02;;;;;;;;;;;20.20;99.90;;;;;;7578409;19;19986;-78
2023/07/01 09:37:34;;;;;;;;;;;20.40;99.90;;;;;;7591028;19;19923;-78
2023/07/01 09:40:27;;;;;;;;;;;20.30;99.90;;;;;;7587676;19;20491;-77
2023/07/01 09:42:59;;;;;;;;;;;20.30;99.90;;;;;;7601778;19;19922;-76
2023/07/01 09:45:31;;;;;;;;;;;20.30;99.90;;;;;;7585921;19;19927;-78
2023/07/01 09:48:11;;;;;;;;;;;20.10;99.90;;;;;;7571466;19;19957;-77
2023/07/01 09:50:44;;;;;;;;;;;20.00;99.90;;;;;;7591115;19;19955;-77
2023/07/01 09:53:22;;;;;;;;;;;19.90;99.90;;;;;;7585863;19;19918;-77
2023/07/01 09:55:55;;;;;;;;;;;19.90;99.90;;;;;;7571791;19;19939;-76
2023/07/01 09:58:28;;;;;;;;;;;20.00;99.90;;;;;;7593068;19;19923;-76
2023/07/01 10:01:00;;;;;;;;;;;20.10;99.90;;;;;;7580709;19;19922;-78
2023/07/01 10:03:32;;;;;;;;;;;20.10;99.90;;;;;;7589574;19;19926;-78
2023/07/01 10:06:05;;;;;;;;;;;20.20;99.90;;;;;;7585044;19;19914;-77
2023/07/01 10:08:37;;;;;;;;;;;20.20;99.90;;;;;;7585274;19;20452;-74
2023/07/01 10:11:23;;;;;;;;;;;20.00;99.90;;;;;;7579913;19;19930;-77
2023/07/01 10:13:56;;;;;;;;;;;19.80;99.90;;;;;;7594294;19;19961;-77
2023/07/01 10:16:28;;;;;;;;;;;19.90;99.90;;;;;;7594841;19;19923;-77
2023/07/01 10:19:00;;;;;;;;;;;19.80;99.90;;;;;;7601768;19;19930;-77
2023/07/01 10:21:33;;;;;;;;;;;19.60;99.90;;;;;;7602706;19;26265;-76
2023/07/01 10:24:05;;;;;;;;;;;19.80;99.90;;;;;;7610042;19;19923;-76
2023/07/01 10:26:37;;;;;;;;;;;19.90;99.90;;;;;;7614278;19;19943;-75
2023/07/01 10:29:28;;;;;;;;;;;20.00;99.90;;;;;;7591281;19;19923;-77
2023/07/01 10:32:10;;;;;;;;;;;20.20;99.90;;;;;;7592309;19;19914;-76
2023/07/01 10:34:58;;;;;;;;;;;20.20;99.90;;;;;;7593598;19;19919;-76
2023/07/01 10:37:31;;;;;;;;;;;20.30;99.90;;;;;;7604364;19;19923;-76
2023/07/01 10:40:23;;;;;;;;;;;20.10;99.90;;;;;;7592192;19;19922;-74
2023/07/01 10:43:15;;;;;;;;;;;20.20;99.90;;;;;;7574356;19;19964;-75
2023/07/01 10:46:04;;;;;;;;;;;20.30;99.90;;;;;;7565459;19;19918;-76
2023/07/01 10:48:40;;;;;;;;;;;20.30;99.90;;;;;;7580253;19;19934;-76
2023/07/01 10:51:13;;;;;;;;;;;20.30;99.90;;;;;;7586652;19;20923;-76
2023/07/01 10:53:59;;;;;;;;;;;20.30;99.90;;;;;;7590730;19;19919;-78
2023/07/01 10:56:32;;;;;;;;;;;20.40;99.90;;;;;;7582175;19;21695;-78
2023/07/01 10:59:17;;;;;;;;;;;20.50;99.90;;;;;;7570796;19;20314;-77
2023/07/01 11:01:50;;;;;;;;;;;20.50;99.90;;;;;;7595700;19;19931;-75
2023/07/01 11:04:23;;;;;;;;;;;20.50;99.90;;;;;;7575741;19;19927;-79
2023/07/01 11:06:56;;;;;;;;;;;20.60;99.90;;;;;;7587273;19;19919;-77
2023/07/01 11:09:29;;;;;;;;;;;21.00;99.90;;;;;;7578980;19;19929;-76
2023/07/01 11:12:02;;;;;;;;;;;21.40;99.90;;;;;;7571851;19;19922;-78
2023/07/01 11:14:36;;;;;;;;;;;21.90;99.90;;;;;;7579208;19;20277;-76
2023/07/01 11:17:14;;;;;;;;;;;22.20;99.90;;;;;;7564159;19;19922;-75
2023/07/01 11:19:53;;;;;;;;;;;22.30;99.90;;;;;;7570437;19;19922;-77
2023/07/01 11:22:25;;;;;;;;;;;22.20;97.70;;;;;;7571684;19;19923;-77
2023/07/01 11:25:04;;;;;;;;;;;21.90;99.80;;;;;;7580725;19;19929;-76
2023/07/01 11:27:42;;;;;;;;;;;21.90;99.60;;;;;;7590295;19;20289;-76
2023/07/01 11:30:30;;;;;;;;;;;22.20;99.70;;;;;;7587243;19;19911;-77
2023/07/01 11:33:16;;;;;;;;;;;22.20;98.40;;;;;;7562854;19;19965;-80
2023/07/01 11:35:49;;;;;;;;;;;22.20;97.40;;;;;;7562129;19;19978;-76
2023/07/01 11:38:22;;;;;;;;;;;22.50;96.50;;;;;;7571640;19;19922;-79
2023/07/01 11:40:54;;;;;;;;;;;22.60;95.60;;;;;;7577644;19;19923;-79
2023/07/01 11:43:27;;;;;;;;;;;22.40;94.70;;;;;;7558278;19;19915;-79
2023/07/01 11:46:00;;;;;;;;;;;22.30;94.40;;;;;;7580225;19;19949;-79
2023/07/01 11:48:33;;;;;;;;;;;22.20;95.60;;;;;;7561483;19;21028;-78
2023/07/01 11:51:06;;;;;;;;;;;22.10;95.70;;;;;;7585213;19;20802;-78
2023/07/01 11:53:55;;;;;;;;;;;22.00;95.80;;;;;;7592786;19;20315;-79
2023/07/01 11:56:27;;;;;;;;;;;21.90;95.30;;;;;;7575251;19;20974;-79
2023/07/01 11:58:59;;;;;;;;;;;21.60;95.70;;;;;;7594160;19;19919;-80
2023/07/01 12:01:35;;;;;;;;;;;21.30;97.00;;;;;;7576441;19;19922;-79
2023/07/01 12:04:15;;;;;;;;;;;21.30;97.00;;;;;;7575315;19;20732;-77
2023/07/01 12:06:48;;;;;;;;;;;21.20;97.30;;;;;;7599735;19;19990;-80
2023/07/01 12:09:28;;;;;;;;;;;21.20;97.80;;;;;;7578476;19;19972;-79
2023/07/01 12:12:00;;;;;;;;;;;21.10;97.60;;;;;;7581816;19;19937;-79
2023/07/01 12:14:32;;;;;;;;;;;21.00;97.50;;;;;;7583626;19;20009;-80
2023/07/01 12:17:04;;;;;;;;;;;21.00;97.80;;;;;;7591438;19;19922;-76
2023/07/01 12:19:37;;;;;;;;;;;21.10;97.60;;;;;;7586311;19;19951;-78
2023/07/01 12:22:09;;;;;;;;;;;21.10;97.00;;;;;;7588133;19;19951;-78
2023/07/01 12:24:41;;;;;;;;;;;21.30;96.90;;;;;;7557561;19;19930;-79
2023/07/01 12:27:13;;;;;;;;;;;21.40;96.90;;;;;;7590550;19;19982;-76
2023/07/01 12:29:45;;;;;;;;;;;21.70;95.90;;;;;;7598362;19;19970;-77
2023/07/01 12:32:18;;;;;;;;;;;22.00;95.50;;;;;;7578685;19;20445;-76
2023/07/01 12:34:51;;;;;;;;;;;22.60;94.20;;;;;;7581152;19;19919;-77
2023/07/01 12:37:25;;;;;;;;;;;23.10;93.30;;;;;;7585074;19;19924;-77
2023/07/01 12:39:58;;;;;;;;;;;23.50;91.10;;;;;;7565208;19;19919;-77
2023/07/01 12:42:31;;;;;;;;;;;23.50;91.20;;;;;;7576269;19;19958;-77
2023/07/01 12:45:05;;;;;;;;;;;23.40;93.10;;;;;;7586922;19;19926;-76
2023/07/01 12:47:39;;;;;;;;;;;23.30;91.00;;;;;;7587727;19;19924;-76
2023/07/01 12:50:12;;;;;;;;;;;23.50;89.80;;;;;;7571105;19;19918;-75
2023/07/01 12:52:48;;;;;;;;;;;23.60;88.90;;;;;;7576948;19;19944;-76
2023/07/01 12:55:20;;;;;;;;;;;23.90;86.80;;;;;;7580764;19;19921;-76
2023/07/01 12:57:52;;;;;;;;;;;23.80;85.70;;;;;;7577842;19;19956;-76
2023/07/01 13:00:25;;;;;;;;;;;23.90;91.50;;;;;;7554212;19;19926;-76
2023/07/01 13:02:57;;;;;;;;;;;24.00;86.50;;;;;;7563753;19;20329;-77
2023/07/01 13:05:30;;;;;;;;;;;24.40;88.00;;;;;;7512976;19;19933;-75
2023/07/01 13:08:04;;;;;;;;;;;24.60;84.70;;;;;;7528659;19;19923;-76
2023/07/01 13:10:38;;;;;;;;;;;25.00;84.50;;;;;;7551886;19;19933;-77
2023/07/01 13:13:10;;;;;;;;;;;25.10;83.70;;;;;;7551494;19;19978;-74
2023/07/01 13:15:47;;;;;;;;;;;25.20;81.40;;;;;;7578001;19;20545;-76
2023/07/01 13:18:21;;;;;;;;;;;25.60;79.30;;;;;;7550914;19;21470;-76
2023/07/01 13:20:53;;;;;;;;;;;25.50;76.50;;;;;;7589398;19;19930;-76
2023/07/01 13:23:27;;;;;;;;;;;25.30;77.20;;;;;;7549379;19;20279;-76
2023/07/01 13:25:59;;;;;;;;;;;25.00;78.20;;;;;;7547225;19;19957;-76
2023/07/01 13:28:31;;;;;;;;;;;25.10;79.10;;;;;;7582420;19;19922;-77
2023/07/01 13:31:03;;;;;;;;;;;25.60;77.40;;;;;;7574631;19;20553;-76
2023/07/01 13:33:37;;;;;;;;;;;25.60;77.20;;;;;;7564928;19;20771;-77
2023/07/01 13:36:11;;;;;;;;;;;25.70;77.90;;;;;;7581759;19;19947;-76
2023/07/01 13:38:43;;;;;;;;;;;25.70;78.00;;;;;;7561339;19;20606;-76
2023/07/01 13:41:15;;;;;;;;;;;26.10;77.70;;;;;;7583990;19;19994;-77
2023/07/01 13:43:47;;;;;;;;;;;26.60;74.70;;;;;;7575017;19;20488;-77
2023/07/01 13:46:19;;;;;;;;;;;26.50;77.20;;;;;;7579981;19;19926;-77
2023/07/01 13:48:51;;;;;;;;;;;27.10;73.90;;;;;;7550590;19;19919;-77
2023/07/01 13:51:29;;;;;;;;;;;27.10;72.20;;;;;;7576817;19;19929;-78
2023/07/01 13:54:02;;;;;;;;;;;27.10;72.90;;;;;;7583823;19;20403;-78
2023/07/01 13:56:35;;;;;;;;;;;27.00;70.50;;;;;;7601187;19;20436;-79
2023/07/01 13:59:07;;;;;;;;;;;26.50;71.60;;;;;;7594950;19;19952;-78
2023/07/01 14:01:39;;;;;;;;;;;26.60;70.80;;;;;;7588881;19;19918;-78
2023/07/01 14:04:12;;;;;;;;;;;26.50;73.10;;;;;;7589577;19;19971;-77
2023/07/01 14:06:44;;;;;;;;;;;26.80;70.60;;;;;;7571565;19;20006;-79
2023/07/01 14:09:20;;;;;;;;;;;26.90;74.40;;;;;;7546941;19;19957;-78
2023/07/01 14:11:53;;;;;;;;;;;27.10;70.10;;;;;;7591364;19;19929;-78
2023/07/01 14:14:29;;;;;;;;;;;27.00;69.30;;;;;;7592347;19;20423;-80
2023/07/01 14:17:02;;;;;;;;;;;26.80;69.30;;;;;;7570798;19;20906;-77
2023/07/01 14:19:36;;;;;;;;;;;26.30;68.80;;;;;;7586710;19;19939;-79
2023/07/01 14:22:10;;;;;;;;;;;25.90;71.70;;;;;;7582898;19;19972;-78
2023/07/01 14:24:45;;;;;;;;;;;25.90;72.70;;;;;;7576092;19;19922;-79
2023/07/01 14:27:26;;;;;;;;;;;26.20;70.50;;;;;;7547516;19;20437;-78
2023/07/01 14:29:58;;;;;;;;;;;26.20;71.70;;;;;;7578667;19;19926;-77
2023/07/01 14:32:30;;;;;;;;;;;26.40;70.40;;;;;;7628577;19;19918;-78
2023/07/01 14:35:07;;;;;;;;;;;26.40;70.40;;;;;;7634371;19;19918;-78
2023/07/01 14:37:46;;;;;;;;;;;26.80;70.20;;;;;;7612264;19;19918;-78
2023/07/01 14:40:18;;;;;;;;;;;26.90;69.50;;;;;;7617294;19;20017;-80
2023/07/01 14:42:50;;;;;;;;;;;27.40;67.60;;;;;;7629392;19;19919;-77
2023/07/01 14:45:27;;;;;;;;;;;27.00;68.80;;;;;;7601818;19;21725;-76
2023/07/01 14:47:59;;;;;;;;;;;27.00;68.00;;;;;;7617263;19;19965;-77
2023/07/01 14:50:33;;;;;;;;;;;26.80;69.60;;;;;;7603915;19;19918;-78
2023/07/01 14:53:05;;;;;;;;;;;27.20;68.50;;;;;;7601428;19;19939;-76